sensor_id;sensor_type;location;lat;lon;timestamp;pressure;altitude;pressure_sealevel;temperature;humidity
26978;BME280;56314;48.088;11.642;2023-03-14T00:01:50;93955.44;;;10.65;74.43
26978;BME280;56314;48.088;11.642;2023-03-14T00:04:15;93964.94;;;10.57;74.53
26978;BME280;56314;48.088;11.642;2023-03-14T00:06:41;93960.13;;;10.53;74.90
26978;BME280;56314;48.088;11.642;2023-03-14T00:09:06;93955.50;;;10.46;74.97
26978;BME280;56314;48.088;11.642;2023-03-14T00:11:31;93959.56;;;10.41;75.25
26978;BME280;56314;48.088;11.642;2023-03-14T00:13:57;93980.84;;;10.38;75.79
26978;BME280;56314;48.088;11.642;2023-03-14T00:16:22;93991.41;;;10.46;75.65
26978;BME280;56314;48.088;11.642;2023-03-14T00:18:48;93990.22;;;10.40;75.35
26978;BME280;56314;48.088;11.642;2023-03-14T00:21:13;93986.69;;;10.31;75.54
26978;BME280;56314;48.088;11.642;2023-03-14T00:23:40;93967.00;;;10.36;75.53
26978;BME280;56314;48.088;11.642;2023-03-14T00:26:11;93965.00;;;10.29;75.83
26978;BME280;56314;48.088;11.642;2023-03-14T00:28:38;93961.03;;;10.25;76.29
26978;BME280;56314;48.088;11.642;2023-03-14T00:31:08;93959.84;;;10.20;76.49
26978;BME280;56314;48.088;11.642;2023-03-14T00:33:34;93954.59;;;10.20;76.68
26978;BME280;56314;48.088;11.642;2023-03-14T00:36:07;93954.75;;;10.18;76.88
26978;BME280;56314;48.088;11.642;2023-03-14T00:38:34;93954.06;;;10.16;76.97
26978;BME280;56314;48.088;11.642;2023-03-14T00:41:03;93947.69;;;10.19;76.78
26978;BME280;56314;48.088;11.642;2023-03-14T00:43:29;93953.28;;;10.15;77.09
26978;BME280;56314;48.088;11.642;2023-03-14T00:45:54;93955.06;;;10.15;77.30
26978;BME280;56314;48.088;11.642;2023-03-14T00:48:20;93970.63;;;10.16;77.25
26978;BME280;56314;48.088;11.642;2023-03-14T00:50:46;93976.09;;;10.23;77.21
26978;BME280;56314;48.088;11.642;2023-03-14T00:53:12;93975.81;;;10.26;77.11
26978;BME280;56314;48.088;11.642;2023-03-14T00:55:39;93976.66;;;10.27;77.30
26978;BME280;56314;48.088;11.642;2023-03-14T00:58:05;93979.09;;;10.28;76.98
26978;BME280;56314;48.088;11.642;2023-03-14T01:00:30;93973.84;;;10.28;77.10
26978;BME280;56314;48.088;11.642;2023-03-14T01:02:56;93981.09;;;10.35;77.34
26978;BME280;56314;48.088;11.642;2023-03-14T01:05:22;93995.06;;;10.35;77.42
26978;BME280;56314;48.088;11.642;2023-03-14T01:07:47;93998.75;;;10.42;77.75
26978;BME280;56314;48.088;11.642;2023-03-14T01:10:12;94003.19;;;10.42;78.00
26978;BME280;56314;48.088;11.642;2023-03-14T01:12:41;94012.47;;;10.36;79.50
26978;BME280;56314;48.088;11.642;2023-03-14T01:15:07;94023.53;;;10.30;80.93
26978;BME280;56314;48.088;11.642;2023-03-14T01:17:32;94010.34;;;10.22;82.25
26978;BME280;56314;48.088;11.642;2023-03-14T01:19:59;94018.06;;;10.23;82.58
26978;BME280;56314;48.088;11.642;2023-03-14T01:22:27;94021.31;;;10.17;83.46
26978;BME280;56314;48.088;11.642;2023-03-14T01:24:52;94013.38;;;10.09;85.02
26978;BME280;56314;48.088;11.642;2023-03-14T01:27:17;94010.88;;;10.07;87.85
26978;BME280;56314;48.088;11.642;2023-03-14T01:29:43;94012.47;;;10.00;88.70
26978;BME280;56314;48.088;11.642;2023-03-14T01:32:08;94006.47;;;9.90;90.31
26978;BME280;56314;48.088;11.642;2023-03-14T01:34:33;94010.19;;;9.87;91.42
26978;BME280;56314;48.088;11.642;2023-03-14T01:36:59;94006.34;;;9.81;93.50
26978;BME280;56314;48.088;11.642;2023-03-14T01:39:24;94009.66;;;9.83;94.32
26978;BME280;56314;48.088;11.642;2023-03-14T01:41:49;94009.59;;;9.75;95.72
26978;BME280;56314;48.088;11.642;2023-03-14T01:44:15;94011.81;;;9.70;96.83
26978;BME280;56314;48.088;11.642;2023-03-14T01:46:44;94007.97;;;9.64;96.94
26978;BME280;56314;48.088;11.642;2023-03-14T01:49:32;94010.91;;;9.61;97.72
26978;BME280;56314;48.088;11.642;2023-03-14T01:54:37;94005.44;;;9.54;98.19
26978;BME280;56314;48.088;11.642;2023-03-14T01:57:20;94005.28;;;9.56;99.17
26978;BME280;56314;48.088;11.642;2023-03-14T02:00:07;94014.03;;;9.47;99.51
26978;BME280;56314;48.088;11.642;2023-03-14T02:02:48;94024.94;;;9.42;99.95
26978;BME280;56314;48.088;11.642;2023-03-14T02:05:18;94028.13;;;9.36;100.00
26978;BME280;56314;48.088;11.642;2023-03-14T02:07:50;94028.03;;;9.28;100.00
26978;BME280;56314;48.088;11.642;2023-03-14T02:10:18;94028.19;;;9.26;100.00
26978;BME280;56314;48.088;11.642;2023-03-14T02:12:46;94026.66;;;9.23;100.00
26978;BME280;56314;48.088;11.642;2023-03-14T02:15:12;94018.56;;;9.17;100.00
26978;BME280;56314;48.088;11.642;2023-03-14T02:17:40;94029.47;;;9.12;100.00
26978;BME280;56314;48.088;11.642;2023-03-14T02:22:45;94031.00;;;9.05;98.87
26978;BME280;56314;48.088;11.642;2023-03-14T02:25:39;94025.53;;;8.98;100.00
26978;BME280;56314;48.088;11.642;2023-03-14T02:28:07;94033.38;;;8.88;100.00
26978;BME280;56314;48.088;11.642;2023-03-14T02:30:33;94017.56;;;8.90;100.00
26978;BME280;56314;48.088;11.642;2023-03-14T02:33:01;94003.38;;;8.83;100.00
26978;BME280;56314;48.088;11.642;2023-03-14T02:35:33;93988.91;;;8.78;100.00
26978;BME280;56314;48.088;11.642;2023-03-14T02:38:20;93979.13;;;8.81;100.00
26978;BME280;56314;48.088;11.642;2023-03-14T02:40:49;93959.59;;;8.75;100.00
26978;BME280;56314;48.088;11.642;2023-03-14T02:43:15;93950.94;;;8.65;99.79
26978;BME280;56314;48.088;11.642;2023-03-14T02:45:45;93936.91;;;8.56;100.00
26978;BME280;56314;48.088;11.642;2023-03-14T02:48:26;93925.78;;;8.54;100.00
26978;BME280;56314;48.088;11.642;2023-03-14T02:50:57;93910.38;;;8.51;100.00
26978;BME280;56314;48.088;11.642;2023-03-14T02:53:29;93910.50;;;8.49;100.00
26978;BME280;56314;48.088;11.642;2023-03-14T02:55:56;93891.63;;;8.45;100.00
26978;BME280;56314;48.088;11.642;2023-03-14T02:58:21;93895.06;;;8.46;99.77
26978;BME280;56314;48.088;11.642;2023-03-14T03:00:47;93893.53;;;8.43;100.00
26978;BME280;56314;48.088;11.642;2023-03-14T03:03:13;93893.41;;;8.45;99.19
26978;BME280;56314;48.088;11.642;2023-03-14T03:05:38;93889.69;;;8.38;99.17
26978;BME280;56314;48.088;11.642;2023-03-14T03:08:04;93892.88;;;8.41;99.54
26978;BME280;56314;48.088;11.642;2023-03-14T03:10:30;93894.66;;;8.41;98.84
26978;BME280;56314;48.088;11.642;2023-03-14T03:12:55;93880.22;;;8.37;99.46
26978;BME280;56314;48.088;11.642;2023-03-14T03:15:21;93871.41;;;8.38;98.96
26978;BME280;56314;48.088;11.642;2023-03-14T03:17:47;93858.75;;;8.33;98.64
26978;BME280;56314;48.088;11.642;2023-03-14T03:20:12;93854.91;;;8.27;99.23
26978;BME280;56314;48.088;11.642;2023-03-14T03:22:38;93862.22;;;8.24;99.17
26978;BME280;56314;48.088;11.642;2023-03-14T03:25:04;93870.66;;;8.18;98.14
26978;BME280;56314;48.088;11.642;2023-03-14T03:27:31;93857.28;;;8.21;98.51
26978;BME280;56314;48.088;11.642;2023-03-14T03:29:57;93853.31;;;8.16;97.78
26978;BME280;56314;48.088;11.642;2023-03-14T03:32:23;93867.47;;;8.14;97.21
26978;BME280;56314;48.088;11.642;2023-03-14T03:34:48;93863.34;;;8.11;97.75
26978;BME280;56314;48.088;11.642;2023-03-14T03:37:13;93861.16;;;8.07;97.82
26978;BME280;56314;48.088;11.642;2023-03-14T03:39:39;93869.81;;;8.07;97.85
26978;BME280;56314;48.088;11.642;2023-03-14T03:42:04;93869.28;;;8.13;98.33
26978;BME280;56314;48.088;11.642;2023-03-14T03:44:30;93859.63;;;8.14;96.76
26978;BME280;56314;48.088;11.642;2023-03-14T03:46:55;93863.19;;;8.13;95.33
26978;BME280;56314;48.088;11.642;2023-03-14T03:49:20;93862.41;;;8.02;93.65
26978;BME280;56314;48.088;11.642;2023-03-14T03:51:46;93858.13;;;8.01;93.80
26978;BME280;56314;48.088;11.642;2023-03-14T03:54:11;93866.56;;;7.95;92.76
26978;BME280;56314;48.088;11.642;2023-03-14T03:56:36;93879.09;;;7.92;93.33
26978;BME280;56314;48.088;11.642;2023-03-14T03:59:02;93882.50;;;7.92;92.41
26978;BME280;56314;48.088;11.642;2023-03-14T04:01:27;93875.09;;;7.88;94.38
26978;BME280;56314;48.088;11.642;2023-03-14T04:03:52;93848.41;;;7.84;93.03
26978;BME280;56314;48.088;11.642;2023-03-14T04:06:18;93861.22;;;7.87;92.89
26978;BME280;56314;48.088;11.642;2023-03-14T04:08:43;93873.16;;;7.90;91.04
26978;BME280;56314;48.088;11.642;2023-03-14T04:11:09;93860.38;;;7.86;91.60
26978;BME280;56314;48.088;11.642;2023-03-14T04:13:35;93871.66;;;7.87;91.95
26978;BME280;56314;48.088;11.642;2023-03-14T04:16:00;93863.25;;;7.83;93.19
26978;BME280;56314;48.088;11.642;2023-03-14T04:18:26;93860.53;;;7.85;92.11
26978;BME280;56314;48.088;11.642;2023-03-14T04:20:52;93859.13;;;7.81;93.16
26978;BME280;56314;48.088;11.642;2023-03-14T04:23:22;93856.38;;;7.82;92.38
26978;BME280;56314;48.088;11.642;2023-03-14T04:25:52;93841.25;;;7.86;91.72
26978;BME280;56314;48.088;11.642;2023-03-14T04:28:17;93836.72;;;7.78;91.87
26978;BME280;56314;48.088;11.642;2023-03-14T04:30:43;93829.16;;;7.75;91.78
26978;BME280;56314;48.088;11.642;2023-03-14T04:33:08;93821.88;;;7.79;92.80
26978;BME280;56314;48.088;11.642;2023-03-14T04:35:34;93815.69;;;7.70;92.08
26978;BME280;56314;48.088;11.642;2023-03-14T04:37:59;93813.91;;;7.70;91.63
26978;BME280;56314;48.088;11.642;2023-03-14T04:40:25;93814.06;;;7.69;90.46
26978;BME280;56314;48.088;11.642;2023-03-14T04:42:51;93811.72;;;7.66;92.00
26978;BME280;56314;48.088;11.642;2023-03-14T04:45:16;93809.38;;;7.63;91.07
26978;BME280;56314;48.088;11.642;2023-03-14T04:47:41;93812.94;;;7.62;89.65
26978;BME280;56314;48.088;11.642;2023-03-14T04:50:08;93814.59;;;7.63;89.86
26978;BME280;56314;48.088;11.642;2023-03-14T04:52:33;93820.09;;;7.69;89.21
26978;BME280;56314;48.088;11.642;2023-03-14T04:54:59;93810.75;;;7.67;89.22
26978;BME280;56314;48.088;11.642;2023-03-14T04:57:24;93798.50;;;7.67;88.27
26978;BME280;56314;48.088;11.642;2023-03-14T04:59:49;93794.78;;;7.70;88.70
26978;BME280;56314;48.088;11.642;2023-03-14T05:02:15;93794.78;;;7.70;88.05
26978;BME280;56314;48.088;11.642;2023-03-14T05:04:40;93794.13;;;7.68;87.53
26978;BME280;56314;48.088;11.642;2023-03-14T05:07:05;93798.50;;;7.67;88.55
26978;BME280;56314;48.088;11.642;2023-03-14T05:09:31;93795.09;;;7.67;88.75
26978;BME280;56314;48.088;11.642;2023-03-14T05:11:56;93805.13;;;7.72;86.81
26978;BME280;56314;48.088;11.642;2023-03-14T05:14:21;93799.19;;;7.69;87.50
26978;BME280;56314;48.088;11.642;2023-03-14T05:16:47;93791.91;;;7.73;87.78
26978;BME280;56314;48.088;11.642;2023-03-14T05:19:12;93779.69;;;7.74;87.41
26978;BME280;56314;48.088;11.642;2023-03-14T05:21:37;93781.44;;;7.73;87.04
26978;BME280;56314;48.088;11.642;2023-03-14T05:24:03;93774.19;;;7.67;87.88
26978;BME280;56314;48.088;11.642;2023-03-14T05:26:29;93779.94;;;7.70;87.48
26978;BME280;56314;48.088;11.642;2023-03-14T05:28:55;93781.88;;;7.68;87.80
26978;BME280;56314;48.088;11.642;2023-03-14T05:31:20;93788.91;;;7.68;88.00
26978;BME280;56314;48.088;11.642;2023-03-14T05:33:46;93783.69;;;7.68;87.58
26978;BME280;56314;48.088;11.642;2023-03-14T05:36:11;93791.78;;;7.65;87.40
26978;BME280;56314;48.088;11.642;2023-03-14T05:38:37;93788.91;;;7.68;87.98
26978;BME280;56314;48.088;11.642;2023-03-14T05:41:03;93786.41;;;7.66;88.49
26978;BME280;56314;48.088;11.642;2023-03-14T05:43:28;93781.59;;;7.62;88.79
26978;BME280;56314;48.088;11.642;2023-03-14T05:45:54;93776.53;;;7.60;88.97
26978;BME280;56314;48.088;11.642;2023-03-14T05:48:19;93786.03;;;7.61;89.98
26978;BME280;56314;48.088;11.642;2023-03-14T05:50:44;93778.84;;;7.73;88.97
26978;BME280;56314;48.088;11.642;2023-03-14T05:53:10;93777.19;;;7.72;88.10
26978;BME280;56314;48.088;11.642;2023-03-14T05:55:35;93772.81;;;7.63;88.78
26978;BME280;56314;48.088;11.642;2023-03-14T05:58:00;93779.00;;;7.62;89.67
26978;BME280;56314;48.088;11.642;2023-03-14T06:00:26;93771.84;;;7.64;90.87
26978;BME280;56314;48.088;11.642;2023-03-14T06:02:51;93772.53;;;7.66;90.58
26978;BME280;56314;48.088;11.642;2023-03-14T06:05:16;93768.81;;;7.68;90.83
26978;BME280;56314;48.088;11.642;2023-03-14T06:07:42;93773.88;;;7.70;90.12
26978;BME280;56314;48.088;11.642;2023-03-14T06:10:08;93773.34;;;7.76;89.10
26978;BME280;56314;48.088;11.642;2023-03-14T06:12:33;93776.91;;;7.75;89.56
26978;BME280;56314;48.088;11.642;2023-03-14T06:14:58;93769.91;;;7.76;89.48
26978;BME280;56314;48.088;11.642;2023-03-14T06:17:26;93765.34;;;7.78;89.59
26978;BME280;56314;48.088;11.642;2023-03-14T06:19:52;93767.97;;;7.78;90.15
26978;BME280;56314;48.088;11.642;2023-03-14T06:22:17;93773.88;;;7.80;89.47
26978;BME280;56314;48.088;11.642;2023-03-14T06:24:43;93773.06;;;7.79;89.33
26978;BME280;56314;48.088;11.642;2023-03-14T06:27:11;93769.19;;;7.83;88.56
26978;BME280;56314;48.088;11.642;2023-03-14T06:29:39;93760.69;;;7.81;88.33
26978;BME280;56314;48.088;11.642;2023-03-14T06:32:04;93758.47;;;7.77;87.57
26978;BME280;56314;48.088;11.642;2023-03-14T06:34:30;93747.75;;;7.80;87.73
26978;BME280;56314;48.088;11.642;2023-03-14T06:36:55;93742.06;;;7.84;88.06
26978;BME280;56314;48.088;11.642;2023-03-14T06:39:20;93729.84;;;7.85;87.59
26978;BME280;56314;48.088;11.642;2023-03-14T06:41:48;93731.50;;;7.86;87.88
26978;BME280;56314;48.088;11.642;2023-03-14T06:44:14;93730.22;;;7.90;87.86
26978;BME280;56314;48.088;11.642;2023-03-14T06:46:39;93730.22;;;8.00;87.28
26978;BME280;56314;48.088;11.642;2023-03-14T06:49:07;93737.88;;;8.11;86.82
26978;BME280;56314;48.088;11.642;2023-03-14T06:51:32;93754.50;;;8.10;86.53
26978;BME280;56314;48.088;11.642;2023-03-14T06:53:58;93751.19;;;8.18;84.86
26978;BME280;56314;48.088;11.642;2023-03-14T06:56:23;93745.00;;;8.19;83.84
26978;BME280;56314;48.088;11.642;2023-03-14T06:58:49;93755.03;;;8.14;84.79
26978;BME280;56314;48.088;11.642;2023-03-14T07:01:20;93759.75;;;8.10;85.43
26978;BME280;56314;48.088;11.642;2023-03-14T07:03:46;93764.97;;;8.10;85.99
26978;BME280;56314;48.088;11.642;2023-03-14T07:06:11;93762.09;;;8.04;85.84
26978;BME280;56314;48.088;11.642;2023-03-14T07:08:36;93763.50;;;7.98;85.93
26978;BME280;56314;48.088;11.642;2023-03-14T07:11:04;93751.28;;;7.98;86.22
26978;BME280;56314;48.088;11.642;2023-03-14T07:13:29;93758.00;;;8.01;86.55
26978;BME280;56314;48.088;11.642;2023-03-14T07:15:54;93750.59;;;7.96;87.08
26978;BME280;56314;48.088;11.642;2023-03-14T07:18:20;93758.69;;;8.03;87.30
26978;BME280;56314;48.088;11.642;2023-03-14T07:20:45;93759.50;;;8.04;86.88
26978;BME280;56314;48.088;11.642;2023-03-14T07:23:11;93759.50;;;8.04;86.43
26978;BME280;56314;48.088;11.642;2023-03-14T07:25:36;93763.91;;;8.03;86.00
26978;BME280;56314;48.088;11.642;2023-03-14T07:28:01;93759.38;;;7.95;87.33
26978;BME280;56314;48.088;11.642;2023-03-14T07:30:27;93759.91;;;7.99;87.09
26978;BME280;56314;48.088;11.642;2023-03-14T07:32:52;93764.34;;;7.98;86.96
26978;BME280;56314;48.088;11.642;2023-03-14T07:35:17;93764.19;;;8.00;87.16
26978;BME280;56314;48.088;11.642;2023-03-14T07:37:43;93759.50;;;8.04;86.40
26978;BME280;56314;48.088;11.642;2023-03-14T07:40:09;93760.59;;;8.01;86.85
26978;BME280;56314;48.088;11.642;2023-03-14T07:42:35;93754.78;;;8.07;86.38
26978;BME280;56314;48.088;11.642;2023-03-14T07:45:04;93754.31;;;8.22;84.92
26978;BME280;56314;48.088;11.642;2023-03-14T07:47:29;93753.75;;;8.28;82.40
26978;BME280;56314;48.088;11.642;2023-03-14T07:49:55;93751.63;;;8.41;81.09
26978;BME280;56314;48.088;11.642;2023-03-14T07:52:20;93745.91;;;8.56;80.08
26978;BME280;56314;48.088;11.642;2023-03-14T07:54:45;93734.97;;;8.70;77.45
26978;BME280;56314;48.088;11.642;2023-03-14T07:57:11;93736.16;;;8.76;77.19
26978;BME280;56314;48.088;11.642;2023-03-14T07:59:36;93739.06;;;8.91;76.59
26978;BME280;56314;48.088;11.642;2023-03-14T08:02:01;93743.78;;;9.05;76.08
26978;BME280;56314;48.088;11.642;2023-03-14T08:04:31;93742.59;;;9.18;75.17
26978;BME280;56314;48.088;11.642;2023-03-14T08:06:57;93744.63;;;9.24;74.73
26978;BME280;56314;48.088;11.642;2023-03-14T08:09:23;93739.63;;;9.31;73.91
26978;BME280;56314;48.088;11.642;2023-03-14T08:11:48;93734.28;;;9.22;72.74
26978;BME280;56314;48.088;11.642;2023-03-14T08:14:13;93739.69;;;9.21;73.37
26978;BME280;56314;48.088;11.642;2023-03-14T08:16:39;93739.44;;;9.32;72.92
26978;BME280;56314;48.088;11.642;2023-03-14T08:19:04;93743.72;;;9.33;72.48
26978;BME280;56314;48.088;11.642;2023-03-14T08:21:30;93748.03;;;9.43;72.06
26978;BME280;56314;48.088;11.642;2023-03-14T08:23:55;93751.50;;;9.43;73.16
26978;BME280;56314;48.088;11.642;2023-03-14T08:26:21;93738.41;;;9.43;74.23
26978;BME280;56314;48.088;11.642;2023-03-14T08:28:46;93750.56;;;9.52;72.12
26978;BME280;56314;48.088;11.642;2023-03-14T08:31:11;93757.94;;;9.49;71.45
26978;BME280;56314;48.088;11.642;2023-03-14T08:33:36;93758.06;;;9.47;71.44
26978;BME280;56314;48.088;11.642;2023-03-14T08:36:02;93758.78;;;9.58;70.99
26978;BME280;56314;48.088;11.642;2023-03-14T08:38:28;93758.66;;;9.59;72.13
26978;BME280;56314;48.088;11.642;2023-03-14T08:41:00;93761.78;;;9.63;70.02
26978;BME280;56314;48.088;11.642;2023-03-14T08:43:27;93760.50;;;9.67;69.78
26978;BME280;56314;48.088;11.642;2023-03-14T08:45:53;93777.72;;;9.69;69.79
26978;BME280;56314;48.088;11.642;2023-03-14T08:48:19;93778.94;;;9.83;67.73
26978;BME280;56314;48.088;11.642;2023-03-14T08:50:45;93779.25;;;9.80;68.41
26978;BME280;56314;48.088;11.642;2023-03-14T08:53:10;93777.47;;;9.81;69.60
26978;BME280;56314;48.088;11.642;2023-03-14T08:55:38;93784.50;;;9.80;69.96
26978;BME280;56314;48.088;11.642;2023-03-14T08:58:03;93784.81;;;9.77;68.67
26978;BME280;56314;48.088;11.642;2023-03-14T09:00:28;93784.63;;;9.70;68.44
26978;BME280;56314;48.088;11.642;2023-03-14T09:02:54;93784.75;;;9.69;70.41
26978;BME280;56314;48.088;11.642;2023-03-14T09:05:19;93779.22;;;9.72;67.62
26978;BME280;56314;48.088;11.642;2023-03-14T09:07:44;93785.59;;;9.69;68.53
26978;BME280;56314;48.088;11.642;2023-03-14T09:10:10;93791.81;;;9.68;68.27
26978;BME280;56314;48.088;11.642;2023-03-14T09:12:36;93797.09;;;9.77;68.06
26978;BME280;56314;48.088;11.642;2023-03-14T09:15:02;93799.03;;;9.75;68.61
26978;BME280;56314;48.088;11.642;2023-03-14T09:17:27;93786.16;;;9.81;67.90
26978;BME280;56314;48.088;11.642;2023-03-14T09:19:52;93789.09;;;9.78;68.23
26978;BME280;56314;48.088;11.642;2023-03-14T09:22:18;93788.88;;;9.72;68.80
26978;BME280;56314;48.088;11.642;2023-03-14T09:24:43;93793.44;;;9.69;69.55
26978;BME280;56314;48.088;11.642;2023-03-14T09:27:09;93796.88;;;9.70;69.89
26978;BME280;56314;48.088;11.642;2023-03-14T09:29:34;93789.47;;;9.65;70.02
26978;BME280;56314;48.088;11.642;2023-03-14T09:31:59;93789.94;;;9.61;69.38
26978;BME280;56314;48.088;11.642;2023-03-14T09:34:25;93785.00;;;9.58;68.99
26978;BME280;56314;48.088;11.642;2023-03-14T09:36:50;93785.44;;;9.53;69.46
26978;BME280;56314;48.088;11.642;2023-03-14T09:39:16;93786.06;;;9.47;69.80
26978;BME280;56314;48.088;11.642;2023-03-14T09:41:47;93780.97;;;9.45;69.91
26978;BME280;56314;48.088;11.642;2023-03-14T09:44:42;93779.53;;;9.51;70.79
26978;BME280;56314;48.088;11.642;2023-03-14T09:47:12;93765.78;;;9.49;70.06
26978;BME280;56314;48.088;11.642;2023-03-14T09:49:42;93768.75;;;9.54;70.58
26978;BME280;56314;48.088;11.642;2023-03-14T09:52:30;93772.28;;;9.63;70.82
26978;BME280;56314;48.088;11.642;2023-03-14T09:54:57;93763.44;;;9.64;71.22
26978;BME280;56314;48.088;11.642;2023-03-14T09:57:24;93766.19;;;9.62;72.24
26978;BME280;56314;48.088;11.642;2023-03-14T09:59:52;93763.66;;;9.70;73.33
26978;BME280;56314;48.088;11.642;2023-03-14T10:02:24;93760.34;;;9.68;75.13
26978;BME280;56314;48.088;11.642;2023-03-14T10:04:51;93750.53;;;9.70;72.87
26978;BME280;56314;48.088;11.642;2023-03-14T10:07:28;93750.59;;;9.79;71.95
26978;BME280;56314;48.088;11.642;2023-03-14T10:09:54;93755.06;;;9.86;68.57
26978;BME280;56314;48.088;11.642;2023-03-14T10:12:20;93747.91;;;9.97;65.79
26978;BME280;56314;48.088;11.642;2023-03-14T10:14:54;93751.22;;;10.07;66.64
26978;BME280;56314;48.088;11.642;2023-03-14T10:17:20;93751.13;;;10.17;67.28
26978;BME280;56314;48.088;11.642;2023-03-14T10:19:54;93754.81;;;10.32;66.68
26978;BME280;56314;48.088;11.642;2023-03-14T10:22:22;93750.13;;;10.44;65.57
26978;BME280;56314;48.088;11.642;2023-03-14T10:24:53;93741.00;;;10.65;64.81
26978;BME280;56314;48.088;11.642;2023-03-14T10:27:22;93746.97;;;10.75;63.22
26978;BME280;56314;48.088;11.642;2023-03-14T10:29:57;93742.56;;;11.09;61.95
26978;BME280;56314;48.088;11.642;2023-03-14T10:32:29;93729.13;;;11.62;60.07
26978;BME280;56314;48.088;11.642;2023-03-14T10:35:07;93720.84;;;12.14;58.73
26978;BME280;56314;48.088;11.642;2023-03-14T10:37:57;93708.16;;;13.13;56.68
26978;BME280;56314;48.088;11.642;2023-03-14T10:40:37;93721.41;;;13.51;54.68
26978;BME280;56314;48.088;11.642;2023-03-14T10:43:13;93719.56;;;13.75;52.30
26978;BME280;56314;48.088;11.642;2023-03-14T10:45:41;93711.94;;;14.10;52.85
26978;BME280;56314;48.088;11.642;2023-03-14T10:51:09;93724.53;;;14.38;50.91
26978;BME280;56314;48.088;11.642;2023-03-14T10:53:39;93722.97;;;14.28;50.19
26978;BME280;56314;48.088;11.642;2023-03-14T10:56:06;93727.25;;;14.14;51.09
26978;BME280;56314;48.088;11.642;2023-03-14T10:58:35;93723.97;;;13.97;51.48
26978;BME280;56314;48.088;11.642;2023-03-14T11:15:19;93736.28;;;12.66;53.50
26978;BME280;56314;48.088;11.642;2023-03-14T11:23:21;93734.97;;;12.22;54.54
26978;BME280;56314;48.088;11.642;2023-03-14T11:28:25;93735.91;;;12.37;54.91
26978;BME280;56314;48.088;11.642;2023-03-14T11:30:55;93731.94;;;12.73;54.05
26978;BME280;56314;48.088;11.642;2023-03-14T11:33:28;93728.63;;;12.79;53.31
26978;BME280;56314;48.088;11.642;2023-03-14T11:36:06;93725.59;;;13.14;52.89
26978;BME280;56314;48.088;11.642;2023-03-14T11:41:00;93713.03;;;13.70;50.22
26978;BME280;56314;48.088;11.642;2023-03-14T11:43:45;93707.41;;;13.89;48.60
26978;BME280;56314;48.088;11.642;2023-03-14T11:46:20;93705.66;;;14.26;46.45
26978;BME280;56314;48.088;11.642;2023-03-14T11:48:59;93698.69;;;14.18;46.75
26978;BME280;56314;48.088;11.642;2023-03-14T11:51:35;93695.50;;;14.23;46.57
26978;BME280;56314;48.088;11.642;2023-03-14T11:54:04;93692.03;;;13.92;46.53
26978;BME280;56314;48.088;11.642;2023-03-14T11:56:41;93696.00;;;13.58;47.77
26978;BME280;56314;48.088;11.642;2023-03-14T11:59:19;93695.63;;;13.15;48.05
26978;BME280;56314;48.088;11.642;2023-03-14T12:01:57;93696.91;;;12.96;47.78
26978;BME280;56314;48.088;11.642;2023-03-14T12:04:43;93698.28;;;12.91;48.06
26978;BME280;56314;48.088;11.642;2023-03-14T12:07:28;93698.25;;;13.15;47.61
26978;BME280;56314;48.088;11.642;2023-03-14T12:09:57;93691.66;;;13.19;47.04
26978;BME280;56314;48.088;11.642;2023-03-14T12:12:25;93695.31;;;13.33;46.97
26978;BME280;56314;48.088;11.642;2023-03-14T12:15:00;93693.13;;;13.45;46.73
26978;BME280;56314;48.088;11.642;2023-03-14T12:17:40;93695.59;;;13.46;46.96
26978;BME280;56314;48.088;11.642;2023-03-14T12:22:44;93687.66;;;13.46;47.27
26978;BME280;56314;48.088;11.642;2023-03-14T12:28:03;93694.16;;;13.35;47.88
26978;BME280;56314;48.088;11.642;2023-03-14T12:30:40;93679.69;;;13.08;48.30
26978;BME280;56314;48.088;11.642;2023-03-14T12:38:06;93688.06;;;13.12;49.41
26978;BME280;56314;48.088;11.642;2023-03-14T12:40:39;93689.72;;;13.13;49.58
26978;BME280;56314;48.088;11.642;2023-03-14T12:43:28;93702.13;;;12.81;48.83
26978;BME280;56314;48.088;11.642;2023-03-14T12:46:15;93688.81;;;12.74;48.44
26978;BME280;56314;48.088;11.642;2023-03-14T12:48:45;93700.69;;;12.70;49.07
26978;BME280;56314;48.088;11.642;2023-03-14T12:51:35;93700.34;;;12.73;49.19
26978;BME280;56314;48.088;11.642;2023-03-14T13:00:20;93703.53;;;13.38;48.91
26978;BME280;56314;48.088;11.642;2023-03-14T13:02:47;93702.88;;;13.59;48.38
26978;BME280;56314;48.088;11.642;2023-03-14T13:05:22;93716.16;;;13.66;48.36
26978;BME280;56314;48.088;11.642;2023-03-14T13:11:02;93712.59;;;13.35;48.76
26978;BME280;56314;48.088;11.642;2023-03-14T13:15:44;93715.94;;;12.51;49.53
26978;BME280;56314;48.088;11.642;2023-03-14T13:18:15;93715.13;;;12.42;50.33
26978;BME280;56314;48.088;11.642;2023-03-14T13:20:48;93711.91;;;12.63;50.32
26978;BME280;56314;48.088;11.642;2023-03-14T13:23:26;93724.31;;;12.55;50.43
26978;BME280;56314;48.088;11.642;2023-03-14T13:25:52;93731.25;;;12.47;50.53
26978;BME280;56314;48.088;11.642;2023-03-14T13:28:18;93729.16;;;12.35;50.94
26978;BME280;56314;48.088;11.642;2023-03-14T13:30:49;93751.69;;;12.37;50.90
26978;BME280;56314;48.088;11.642;2023-03-14T13:33:21;93761.44;;;12.28;51.52
26978;BME280;56314;48.088;11.642;2023-03-14T13:35:49;93758.81;;;12.12;51.67
26978;BME280;56314;48.088;11.642;2023-03-14T13:38:23;93761.97;;;12.07;52.43
26978;BME280;56314;48.088;11.642;2023-03-14T13:40:50;93774.78;;;11.94;53.10
26978;BME280;56314;48.088;11.642;2023-03-14T13:43:33;93774.16;;;11.75;53.48
26978;BME280;56314;48.088;11.642;2023-03-14T13:46:10;93786.81;;;11.47;54.16
26978;BME280;56314;48.088;11.642;2023-03-14T13:48:44;93788.78;;;11.36;54.79
26978;BME280;56314;48.088;11.642;2023-03-14T13:51:15;93802.38;;;11.15;55.40
26978;BME280;56314;48.088;11.642;2023-03-14T13:56:14;93817.19;;;10.82;58.06
26978;BME280;56314;48.088;11.642;2023-03-14T13:58:40;93815.41;;;10.82;59.88